createdAt,value
2023-08-25T00:00:22.035Z,20.50
2023-08-25T00:02:49.059Z,20.30
2023-08-25T00:05:16.095Z,20.20
2023-08-25T00:07:44.409Z,20.30
2023-08-25T00:10:11.470Z,20.20
2023-08-25T00:12:38.510Z,20.40
2023-08-25T00:15:06.472Z,20.40
2023-08-25T00:17:33.566Z,20.40
2023-08-25T00:20:00.590Z,20.30
2023-08-25T00:22:28.775Z,20.20
2023-08-25T00:24:57.095Z,20.20
2023-08-25T00:27:24.108Z,20.30
2023-08-25T00:29:51.383Z,20.40
2023-08-25T00:32:18.356Z,20.50
2023-08-25T00:34:45.333Z,20.30
2023-08-25T00:37:12.442Z,20.30
2023-08-25T00:39:39.693Z,20.20
2023-08-25T00:42:08.157Z,20.10
2023-08-25T00:44:35.645Z,20.10
2023-08-25T00:47:02.603Z,20.00
2023-08-25T00:49:29.830Z,20.00
2023-08-25T00:51:57.012Z,20.00
2023-08-25T00:54:27.438Z,20.10
2023-08-25T00:56:54.747Z,20.20
2023-08-25T00:59:23.307Z,20.20
2023-08-25T01:01:50.575Z,20.30
2023-08-25T01:04:17.661Z,20.30
2023-08-25T01:06:44.662Z,20.20
2023-08-25T01:09:12.118Z,20.20
2023-08-25T01:11:45.271Z,20.10
2023-08-25T01:14:19.472Z,20.10
2023-08-25T01:16:56.248Z,20.10
2023-08-25T01:19:44.749Z,20.10
2023-08-25T01:22:15.667Z,20.00
2023-08-25T01:24:47.914Z,20.10
2023-08-25T01:27:16.502Z,20.10
2023-08-25T01:29:44.370Z,20.00
2023-08-25T01:32:11.477Z,20.00
2023-08-25T01:34:38.773Z,20.00
2023-08-25T01:37:13.298Z,20.00
2023-08-25T01:39:43.342Z,19.90
2023-08-25T01:42:11.663Z,19.90
2023-08-25T01:44:42.713Z,19.90
2023-08-25T01:47:11.073Z,19.90
2023-08-25T01:49:39.588Z,19.80
2023-08-25T01:52:07.532Z,19.80
2023-08-25T01:54:34.604Z,19.80
2023-08-25T01:57:01.536Z,19.80
2023-08-25T01:59:28.678Z,19.80
2023-08-25T02:01:57.176Z,19.80
2023-08-25T02:04:24.175Z,19.70
2023-08-25T02:06:51.158Z,19.70
2023-08-25T02:09:18.218Z,19.70
2023-08-25T02:11:45.177Z,19.70
2023-08-25T02:14:12.140Z,19.60
2023-08-25T02:16:39.118Z,19.60
2023-08-25T02:19:07.538Z,19.60
2023-08-25T02:21:34.537Z,19.50
2023-08-25T02:24:01.531Z,19.50
2023-08-25T02:26:28.419Z,19.50
2023-08-25T02:28:55.314Z,19.50
2023-08-25T02:31:22.340Z,19.50
2023-08-25T02:33:49.330Z,19.60
2023-08-25T02:36:17.638Z,19.70
2023-08-25T02:38:44.528Z,19.80
2023-08-25T02:41:11.445Z,19.80
2023-08-25T02:43:38.363Z,19.80
2023-08-25T02:46:05.529Z,19.70
2023-08-25T02:48:32.567Z,19.80
2023-08-25T02:50:59.588Z,19.80
2023-08-25T02:53:27.907Z,19.90
2023-08-25T02:55:54.858Z,19.90
2023-08-25T02:58:21.832Z,19.90
2023-08-25T03:00:49.004Z,19.90
2023-08-25T03:03:16.033Z,20.00
2023-08-25T03:05:43.304Z,20.00
2023-08-25T03:08:10.235Z,20.00
2023-08-25T03:10:38.817Z,20.00
2023-08-25T03:13:06.087Z,20.00
2023-08-25T03:15:33.155Z,20.10
2023-08-25T03:18:00.425Z,20.10
2023-08-25T03:20:27.385Z,20.20
2023-08-25T03:22:54.320Z,20.10
2023-08-25T03:25:21.273Z,20.10
2023-08-25T03:27:49.559Z,20.10
2023-08-25T03:30:16.512Z,20.10
2023-08-25T03:32:43.500Z,20.10
2023-08-25T03:35:10.513Z,20.20
2023-08-25T03:37:37.467Z,20.10
2023-08-25T03:40:05.608Z,20.10
2023-08-25T03:42:32.600Z,20.00
2023-08-25T03:45:00.880Z,19.90
2023-08-25T03:47:27.856Z,19.90
2023-08-25T03:49:54.808Z,20.00
2023-08-25T03:52:21.797Z,20.10
2023-08-25T03:54:48.843Z,20.20
2023-08-25T03:57:15.804Z,20.20
2023-08-25T03:59:42.717Z,20.10
2023-08-25T04:02:11.113Z,20.00
2023-08-25T04:04:38.099Z,19.90
2023-08-25T04:07:05.457Z,19.70
2023-08-25T04:09:32.431Z,19.70
2023-08-25T04:11:59.347Z,19.80
2023-08-25T04:14:26.350Z,19.80
2023-08-25T04:16:53.370Z,19.80
2023-08-25T04:19:21.836Z,19.80
2023-08-25T04:21:48.934Z,19.80
2023-08-25T04:24:17.084Z,19.80
2023-08-25T04:26:44.246Z,19.80
2023-08-25T04:29:11.179Z,19.70
2023-08-25T04:31:38.439Z,19.80
2023-08-25T04:34:05.387Z,19.90
2023-08-25T04:36:33.719Z,20.00
2023-08-25T04:39:00.724Z,20.00
2023-08-25T04:41:27.715Z,20.00
2023-08-25T04:43:54.627Z,20.10
2023-08-25T04:46:21.593Z,20.20
2023-08-25T04:48:48.520Z,20.20
2023-08-25T04:51:15.478Z,20.30
2023-08-25T04:53:43.754Z,20.30
2023-08-25T04:56:10.716Z,20.40
2023-08-25T04:58:37.664Z,20.50
2023-08-25T05:01:04.794Z,20.40
2023-08-25T05:03:31.874Z,20.40
2023-08-25T05:05:58.958Z,20.40
2023-08-25T05:08:25.917Z,20.40
2023-08-25T05:10:54.346Z,20.40
2023-08-25T05:13:21.273Z,20.40
2023-08-25T05:15:48.264Z,20.40
2023-08-25T05:18:15.185Z,20.30
2023-08-25T05:20:42.119Z,20.10
2023-08-25T05:23:10.047Z,20.10
2023-08-25T05:25:37.219Z,19.80
2023-08-25T05:28:06.337Z,19.50
2023-08-25T05:30:33.296Z,19.40
2023-08-25T05:33:00.433Z,19.30
2023-08-25T05:35:27.386Z,19.10
2023-08-25T05:37:54.635Z,19.10
2023-08-25T05:40:21.864Z,19.10
2023-08-25T05:42:48.930Z,19.10
2023-08-25T05:45:17.314Z,19.20
2023-08-25T05:47:44.398Z,19.20
2023-08-25T05:50:11.461Z,19.10
2023-08-25T05:52:38.386Z,19.10
2023-08-25T05:55:06.125Z,19.10
2023-08-25T05:57:33.094Z,19.00
2023-08-25T06:00:00.036Z,19.00
2023-08-25T06:02:28.570Z,19.00
2023-08-25T06:04:55.732Z,19.00
2023-08-25T06:07:22.710Z,19.00
2023-08-25T06:09:49.624Z,19.00
2023-08-25T06:12:16.532Z,19.00
2023-08-25T06:14:43.503Z,19.00
2023-08-25T06:17:11.535Z,19.10
2023-08-25T06:19:39.772Z,19.20
2023-08-25T06:22:06.687Z,19.20
2023-08-25T06:24:33.632Z,19.30
2023-08-25T06:27:00.583Z,19.50
2023-08-25T06:29:27.501Z,19.50
2023-08-25T06:31:54.608Z,19.50
2023-08-25T06:34:21.605Z,19.70
2023-08-25T06:36:49.938Z,19.70
2023-08-25T06:39:17.161Z,19.70
2023-08-25T06:41:44.071Z,19.70
2023-08-25T06:44:11.028Z,20.00
2023-08-25T06:46:37.993Z,20.10
2023-08-25T06:49:04.984Z,20.20
2023-08-25T06:51:31.881Z,20.10
2023-08-25T06:54:00.367Z,20.20
2023-08-25T06:56:27.310Z,20.10
2023-08-25T06:58:54.234Z,20.10
2023-08-25T07:01:21.239Z,19.90
2023-08-25T07:03:48.271Z,19.70
2023-08-25T07:06:15.246Z,19.60
2023-08-25T07:08:48.587Z,19.60
2023-08-25T07:11:16.939Z,19.50
2023-08-25T07:13:43.838Z,19.50
2023-08-25T07:16:10.844Z,19.40
2023-08-25T07:18:37.857Z,19.40
2023-08-25T07:21:05.110Z,19.30
2023-08-25T07:23:32.090Z,19.40
2023-08-25T07:25:59.111Z,19.60
2023-08-25T07:28:27.421Z,19.70
2023-08-25T07:30:54.458Z,19.70
2023-08-25T07:33:21.416Z,19.70
2023-08-25T07:35:48.405Z,19.70
2023-08-25T07:38:15.414Z,19.70
2023-08-25T07:40:42.494Z,19.60
2023-08-25T07:43:09.543Z,19.50
2023-08-25T07:45:38.430Z,19.40
2023-08-25T07:48:06.404Z,19.40
2023-08-25T07:50:33.592Z,19.40
2023-08-25T07:53:00.967Z,19.50
2023-08-25T07:55:28.241Z,19.60
2023-08-25T07:57:55.740Z,19.50
2023-08-25T08:00:23.413Z,19.40
2023-08-25T08:02:52.021Z,19.30
2023-08-25T08:05:19.859Z,19.30
2023-08-25T08:07:47.882Z,19.40
2023-08-25T08:10:18.185Z,19.40
2023-08-25T08:12:45.908Z,19.50
2023-08-25T08:15:13.034Z,19.60
2023-08-25T08:17:40.099Z,19.60
2023-08-25T08:20:09.718Z,19.60
2023-08-25T08:22:36.702Z,19.60
2023-08-25T08:25:04.262Z,19.60
2023-08-25T08:27:31.273Z,19.50
2023-08-25T08:29:58.270Z,19.50
2023-08-25T08:32:25.205Z,19.40
2023-08-25T08:34:52.241Z,19.40
2023-08-25T08:37:20.607Z,19.60
2023-08-25T08:39:47.539Z,19.70
2023-08-25T08:42:15.231Z,19.90
2023-08-25T08:44:45.829Z,20.00
2023-08-25T08:47:13.037Z,20.00
2023-08-25T08:49:41.231Z,20.00
2023-08-25T08:52:09.093Z,20.10
2023-08-25T08:54:38.582Z,20.30
2023-08-25T08:57:06.105Z,20.50
2023-08-25T08:59:33.208Z,20.60
2023-08-25T09:02:00.586Z,20.70
2023-08-25T09:04:28.901Z,20.60
2023-08-25T09:06:59.021Z,20.40
2023-08-25T09:09:26.014Z,20.40
2023-08-25T09:11:54.402Z,20.40
2023-08-25T09:14:25.150Z,20.40
2023-08-25T09:16:54.803Z,20.50
2023-08-25T09:19:21.766Z,20.30
2023-08-25T09:21:48.791Z,20.30
2023-08-25T09:24:19.714Z,20.50
2023-08-25T09:26:50.396Z,20.40
2023-08-25T09:29:20.699Z,20.20
2023-08-25T09:31:47.644Z,19.90
2023-08-25T09:34:15.638Z,19.80
2023-08-25T09:36:53.355Z,20.00
2023-08-25T09:39:21.255Z,20.10
2023-08-25T09:41:48.927Z,20.30
2023-08-25T09:44:16.428Z,20.40
2023-08-25T09:46:45.677Z,20.50
2023-08-25T09:49:14.407Z,20.40
2023-08-25T09:51:43.203Z,20.30
2023-08-25T09:54:11.780Z,20.30
2023-08-25T09:56:39.857Z,20.20
2023-08-25T09:59:07.925Z,20.10
2023-08-25T10:01:36.458Z,20.20
2023-08-25T10:04:06.017Z,20.20
2023-08-25T10:06:34.614Z,20.10
2023-08-25T10:09:02.156Z,20.00
2023-08-25T10:11:31.310Z,19.90
2023-08-25T10:14:03.554Z,20.00
2023-08-25T10:16:34.140Z,19.90
2023-08-25T10:19:02.950Z,19.80
2023-08-25T10:21:32.321Z,19.70
2023-08-25T10:24:01.516Z,19.80
2023-08-25T10:26:28.969Z,20.00
2023-08-25T10:28:56.507Z,20.10
2023-08-25T10:31:24.301Z,20.10
2023-08-25T10:33:53.272Z,20.10
2023-08-25T10:36:22.658Z,19.90
2023-08-25T10:39:09.122Z,19.90
2023-08-25T10:41:41.870Z,19.90
2023-08-25T10:44:11.074Z,19.80
2023-08-25T10:46:48.635Z,19.80
2023-08-25T10:49:16.116Z,19.90
2023-08-25T10:51:43.054Z,20.40
2023-08-25T10:54:24.735Z,20.80
2023-08-25T10:56:52.310Z,21.40
2023-08-25T10:59:21.546Z,21.80
2023-08-25T11:01:55.612Z,21.70
2023-08-25T11:04:24.333Z,21.60
2023-08-25T11:06:52.158Z,21.60
2023-08-25T11:09:40.388Z,21.40
2023-08-25T11:12:09.519Z,21.00
2023-08-25T11:14:44.414Z,20.80
2023-08-25T11:17:11.716Z,20.80
2023-08-25T11:19:39.151Z,20.70
2023-08-25T11:22:15.460Z,20.60
2023-08-25T11:24:52.404Z,20.70
2023-08-25T11:27:30.376Z,21.00
2023-08-25T11:30:08.375Z,21.20
2023-08-25T11:32:41.536Z,21.10
2023-08-25T11:35:10.385Z,21.20
2023-08-25T11:37:43.483Z,21.20
2023-08-25T11:40:12.635Z,21.40
2023-08-25T11:42:47.389Z,21.50
2023-08-25T11:45:14.342Z,21.80
2023-08-25T11:47:48.468Z,22.00
2023-08-25T11:50:15.623Z,22.00
2023-08-25T11:52:42.718Z,21.80
2023-08-25T11:55:23.419Z,21.90
2023-08-25T11:57:51.414Z,22.10
2023-08-25T12:00:25.407Z,22.30
2023-08-25T12:02:57.556Z,22.50
2023-08-25T12:05:34.463Z,22.20
2023-08-25T12:08:02.051Z,22.40
2023-08-25T12:10:40.703Z,22.60
2023-08-25T12:13:07.755Z,22.90
2023-08-25T12:15:47.425Z,22.90
2023-08-25T12:18:14.545Z,22.80
2023-08-25T12:20:50.470Z,22.70
2023-08-25T12:23:17.503Z,22.30
2023-08-25T12:25:52.448Z,22.20
2023-08-25T12:28:19.352Z,22.20
2023-08-25T12:30:46.325Z,22.00
2023-08-25T12:33:19.448Z,22.00
2023-08-25T12:35:46.438Z,22.00
2023-08-25T12:38:13.385Z,22.10
2023-08-25T12:40:46.458Z,22.30
2023-08-25T12:43:14.765Z,22.20
2023-08-25T12:45:41.806Z,22.20
2023-08-25T12:48:15.497Z,22.10
2023-08-25T12:50:42.582Z,21.90
2023-08-25T12:53:09.609Z,21.90
2023-08-25T12:55:43.611Z,22.10
2023-08-25T12:58:17.552Z,22.00
2023-08-25T13:00:52.667Z,22.00
2023-08-25T13:03:19.791Z,21.90
2023-08-25T13:05:46.913Z,21.90
2023-08-25T13:08:20.448Z,21.90
2023-08-25T13:10:52.304Z,22.20
2023-08-25T13:13:19.712Z,22.40
2023-08-25T13:15:54.523Z,22.30
2023-08-25T13:18:28.429Z,22.30
2023-08-25T13:21:01.410Z,22.20
2023-08-25T13:23:39.285Z,22.30
2023-08-25T13:26:18.473Z,22.10
2023-08-25T13:28:45.376Z,22.50
2023-08-25T13:31:13.706Z,22.50
2023-08-25T13:33:47.884Z,22.70
2023-08-25T13:36:21.452Z,22.40
2023-08-25T13:38:55.461Z,22.50
2023-08-25T13:41:22.369Z,22.40
2023-08-25T13:43:58.605Z,22.60
2023-08-25T13:46:27.056Z,22.70
2023-08-25T13:48:53.968Z,22.80
2023-08-25T13:51:27.444Z,22.80
2023-08-25T13:53:54.999Z,22.80
2023-08-25T13:56:28.826Z,22.70
2023-08-25T13:58:56.344Z,22.80
2023-08-25T14:01:23.475Z,22.70
2023-08-25T14:03:58.774Z,22.70
2023-08-25T14:06:25.789Z,22.70
2023-08-25T14:08:59.464Z,22.40
2023-08-25T14:11:26.600Z,22.40
2023-08-25T14:13:53.528Z,22.40
2023-08-25T14:16:27.976Z,22.60
2023-08-25T14:19:02.486Z,22.50
2023-08-25T14:21:36.474Z,22.60
2023-08-25T14:24:10.624Z,22.80
2023-08-25T14:26:44.509Z,22.90
2023-08-25T14:29:11.990Z,22.80
2023-08-25T14:31:39.080Z,22.60
2023-08-25T14:34:08.513Z,22.40
2023-08-25T14:36:35.977Z,22.30
2023-08-25T14:39:03.328Z,22.30
2023-08-25T14:41:30.257Z,22.20
2023-08-25T14:43:57.232Z,22.00
2023-08-25T14:46:27.364Z,22.20
2023-08-25T14:48:54.340Z,22.30
2023-08-25T14:51:22.724Z,22.20
2023-08-25T14:53:49.632Z,22.20
2023-08-25T14:56:16.537Z,22.30
2023-08-25T14:58:43.526Z,22.60
2023-08-25T15:01:10.503Z,22.60
2023-08-25T15:03:37.528Z,22.90
2023-08-25T15:06:04.657Z,22.80
2023-08-25T15:08:32.986Z,22.70
2023-08-25T15:10:59.964Z,22.70
2023-08-25T15:13:27.193Z,22.90
2023-08-25T15:15:54.198Z,23.30
2023-08-25T15:18:21.561Z,23.60
2023-08-25T15:20:56.996Z,23.30
2023-08-25T15:23:24.008Z,23.30
2023-08-25T15:25:52.368Z,23.40
2023-08-25T15:28:19.377Z,23.30
2023-08-25T15:30:46.541Z,23.30
2023-08-25T15:33:13.620Z,23.60
2023-08-25T15:35:43.775Z,23.80
2023-08-25T15:38:10.681Z,23.60
2023-08-25T15:40:37.617Z,23.20
2023-08-25T15:43:06.065Z,23.00
2023-08-25T15:45:33.525Z,22.90
2023-08-25T15:48:00.645Z,22.90
2023-08-25T15:50:27.633Z,22.90
2023-08-25T15:52:55.884Z,22.90
2023-08-25T15:55:22.917Z,22.90
2023-08-25T15:57:50.036Z,22.80
2023-08-25T16:00:19.291Z,22.80
2023-08-25T16:02:46.832Z,22.80
2023-08-25T16:05:13.832Z,22.80
2023-08-25T16:07:40.801Z,22.80
2023-08-25T16:10:09.413Z,22.80
2023-08-25T16:12:42.656Z,22.70
2023-08-25T16:15:11.477Z,22.90
2023-08-25T16:17:41.683Z,23.00
2023-08-25T16:20:09.948Z,22.70
2023-08-25T16:22:37.320Z,22.60
2023-08-25T16:25:05.002Z,22.70
2023-08-25T16:27:32.002Z,22.60
2023-08-25T16:29:58.960Z,22.40
2023-08-25T16:32:26.066Z,22.30
2023-08-25T16:34:54.358Z,22.50
2023-08-25T16:37:21.328Z,22.50
2023-08-25T16:39:48.279Z,22.40
2023-08-25T16:42:15.196Z,22.20
2023-08-25T16:44:42.356Z,22.20
2023-08-25T16:47:09.251Z,22.50
2023-08-25T16:49:36.198Z,22.50
2023-08-25T16:52:04.959Z,22.50
2023-08-25T16:54:31.890Z,22.30
2023-08-25T16:56:58.894Z,22.20
2023-08-25T16:59:26.028Z,22.10
2023-08-25T17:01:53.054Z,22.00
2023-08-25T17:04:20.073Z,22.00
2023-08-25T17:06:47.681Z,22.20
2023-08-25T17:09:16.009Z,22.20
2023-08-25T17:11:42.949Z,22.30
2023-08-25T17:14:09.929Z,22.20
2023-08-25T17:16:37.016Z,22.20
2023-08-25T17:19:04.001Z,22.10
2023-08-25T17:21:30.945Z,22.10
2023-08-25T17:23:57.923Z,22.20
2023-08-25T17:26:26.172Z,22.30
2023-08-25T17:28:53.100Z,22.30
2023-08-25T17:31:20.036Z,22.30
2023-08-25T17:33:47.509Z,22.30
2023-08-25T17:36:14.462Z,22.20
2023-08-25T17:38:41.886Z,22.00
2023-08-25T17:41:09.907Z,21.90
2023-08-25T17:43:39.053Z,21.80
2023-08-25T17:46:08.274Z,21.70
2023-08-25T17:48:35.717Z,21.50
2023-08-25T17:51:02.653Z,21.40
2023-08-25T17:53:29.727Z,21.30
2023-08-25T17:55:56.663Z,21.20
2023-08-25T17:58:30.219Z,21.20
2023-08-25T18:01:02.484Z,21.20
2023-08-25T18:03:36.258Z,21.10
2023-08-25T18:06:03.461Z,21.00
2023-08-25T18:08:30.616Z,20.90
2023-08-25T18:10:57.772Z,20.90
2023-08-25T18:13:24.824Z,20.80
2023-08-25T18:15:55.215Z,20.70
2023-08-25T18:18:24.001Z,20.70
2023-08-25T18:20:57.326Z,20.70
2023-08-25T18:23:25.911Z,20.60
2023-08-25T18:25:52.931Z,20.60
2023-08-25T18:28:20.369Z,20.60
2023-08-25T18:30:55.512Z,20.60
2023-08-25T18:33:23.864Z,20.50
2023-08-25T18:35:51.137Z,20.50
2023-08-25T18:38:18.026Z,20.40
2023-08-25T18:40:46.373Z,20.30
2023-08-25T18:43:13.540Z,20.30
2023-08-25T18:45:40.561Z,20.20
2023-08-25T18:48:07.795Z,20.10
2023-08-25T18:50:36.657Z,20.00
2023-08-25T18:53:03.786Z,20.00
2023-08-25T18:55:30.719Z,20.00
2023-08-25T18:57:57.992Z,20.00
2023-08-25T19:00:24.963Z,20.00
2023-08-25T19:02:58.535Z,20.00
2023-08-25T19:05:25.732Z,20.00
2023-08-25T19:07:54.572Z,19.90
2023-08-25T19:10:21.756Z,19.90
2023-08-25T19:12:48.729Z,19.80
2023-08-25T19:15:15.860Z,19.80
2023-08-25T19:17:49.317Z,19.60
2023-08-25T19:20:16.637Z,19.60
2023-08-25T19:22:43.617Z,19.50
2023-08-25T19:25:11.911Z,19.50
2023-08-25T19:27:39.331Z,19.50
2023-08-25T19:30:07.310Z,19.40
2023-08-25T19:32:34.285Z,19.30
2023-08-25T19:35:02.066Z,19.30
2023-08-25T19:37:29.308Z,19.30
2023-08-25T19:39:56.240Z,19.20
2023-08-25T19:42:24.626Z,19.20
2023-08-25T19:44:51.573Z,19.20
2023-08-25T19:47:18.547Z,19.10
2023-08-25T19:49:45.555Z,19.00
2023-08-25T19:52:12.475Z,18.90
2023-08-25T19:54:39.383Z,18.80
2023-08-25T19:57:06.636Z,18.70
2023-08-25T19:59:35.155Z,18.60
2023-08-25T20:02:08.235Z,18.50
2023-08-25T20:04:35.284Z,18.50
2023-08-25T20:07:02.330Z,18.40
2023-08-25T20:09:29.297Z,18.30
2023-08-25T20:11:56.236Z,18.10
2023-08-25T20:14:23.373Z,18.10
2023-08-25T20:16:51.720Z,18.00
2023-08-25T20:19:18.698Z,17.90
2023-08-25T20:21:45.700Z,17.90
2023-08-25T20:24:12.611Z,17.80
2023-08-25T20:26:39.542Z,17.80
2023-08-25T20:29:06.527Z,17.80
2023-08-25T20:31:33.664Z,17.70
2023-08-25T20:34:02.042Z,17.70
2023-08-25T20:36:29.039Z,17.60
2023-08-25T20:38:55.972Z,17.50
2023-08-25T20:41:22.875Z,17.40
2023-08-25T20:43:49.794Z,17.30
2023-08-25T20:46:18.021Z,17.30
2023-08-25T20:48:46.637Z,17.30
2023-08-25T20:51:15.294Z,17.20
2023-08-25T20:53:42.389Z,17.10
2023-08-25T20:56:10.136Z,17.00
2023-08-25T20:58:37.167Z,17.00
2023-08-25T21:01:04.203Z,17.00
2023-08-25T21:03:37.406Z,17.00
2023-08-25T21:06:04.824Z,16.90
2023-08-25T21:08:33.270Z,16.90
2023-08-25T21:11:00.358Z,16.80
2023-08-25T21:13:27.482Z,16.70
2023-08-25T21:15:55.233Z,16.60
2023-08-25T21:18:22.708Z,16.50
2023-08-25T21:20:50.814Z,16.50
2023-08-25T21:23:19.727Z,16.50
2023-08-25T21:25:51.022Z,16.40
2023-08-25T21:28:18.092Z,16.40
2023-08-25T21:30:51.012Z,16.30
2023-08-25T21:33:19.315Z,16.30
2023-08-25T21:35:46.303Z,16.20
2023-08-25T21:38:13.299Z,16.10
2023-08-25T21:40:40.303Z,16.10
2023-08-25T21:43:09.097Z,16.10
2023-08-25T21:45:36.761Z,16.00
2023-08-25T21:48:04.182Z,15.90
2023-08-25T21:50:31.131Z,15.90
2023-08-25T21:52:58.073Z,15.90
2023-08-25T21:55:25.132Z,15.90
2023-08-25T21:57:52.587Z,15.90
2023-08-25T22:00:20.924Z,15.80
2023-08-25T22:02:54.768Z,15.80
2023-08-25T22:05:22.194Z,15.70
2023-08-25T22:07:49.103Z,15.80
2023-08-25T22:10:16.280Z,15.90
2023-08-25T22:12:43.418Z,16.10
2023-08-25T22:15:11.076Z,16.20
2023-08-25T22:17:40.088Z,16.20
2023-08-25T22:20:08.128Z,16.30
2023-08-25T22:22:35.325Z,16.40
2023-08-25T22:25:02.395Z,16.30
2023-08-25T22:27:29.357Z,16.20
2023-08-25T22:29:56.271Z,16.30
2023-08-25T22:34:54.450Z,16.40
2023-08-25T22:37:21.397Z,16.20
2023-08-25T22:39:48.307Z,16.20
2023-08-25T22:42:15.224Z,16.20
2023-08-25T22:44:42.214Z,16.30
2023-08-25T22:47:09.567Z,16.20
2023-08-25T22:49:36.536Z,16.20
2023-08-25T22:52:05.436Z,16.20
2023-08-25T22:54:32.377Z,16.10
2023-08-25T22:56:59.431Z,16.00
2023-08-25T22:59:26.372Z,16.00
2023-08-25T23:02:00.344Z,15.90
2023-08-25T23:04:27.387Z,16.00
2023-08-25T23:06:54.287Z,16.00
2023-08-25T23:09:22.707Z,16.00
2023-08-25T23:11:49.759Z,15.90
2023-08-25T23:14:16.674Z,15.90
2023-08-25T23:16:43.619Z,15.70
2023-08-25T23:19:10.519Z,15.80
2023-08-25T23:21:37.485Z,15.70
2023-08-25T23:24:05.135Z,15.80
2023-08-25T23:26:35.553Z,16.00
2023-08-25T23:29:02.597Z,16.00
2023-08-25T23:31:29.563Z,15.80
2023-08-25T23:33:56.519Z,15.80
2023-08-25T23:36:23.457Z,15.70
2023-08-25T23:38:50.427Z,15.70
2023-08-25T23:41:17.334Z,15.60
2023-08-25T23:43:46.080Z,15.80
2023-08-25T23:46:13.073Z,15.80
2023-08-25T23:48:40.078Z,15.70
2023-08-25T23:51:07.194Z,15.60
2023-08-25T23:53:34.238Z,15.70
2023-08-25T23:56:01.221Z,15.80
2023-08-25T23:58:28.153Z,15.70
